createdAt,value
2019-04-14T00:01:54.760Z,84.70
2019-04-14T00:04:24.852Z,85.20
2019-04-14T00:06:54.663Z,84.90
2019-04-14T00:09:24.845Z,84.70
2019-04-14T00:11:54.683Z,84.60
2019-04-14T00:14:42.687Z,84.40
2019-04-14T00:17:15.167Z,84.70
2019-04-14T00:19:43.843Z,85.00
2019-04-14T00:22:12.332Z,85.30
2019-04-14T00:24:40.767Z,85.60
2019-04-14T00:27:09.224Z,85.50
2019-04-14T00:29:39.295Z,86.10
2019-04-14T00:32:08.004Z,86.10
2019-04-14T00:34:54.997Z,86.30
2019-04-14T00:37:29.207Z,86.00
2019-04-14T00:40:02.307Z,86.20
2019-04-14T00:42:35.093Z,86.10
2019-04-14T00:45:07.111Z,86.30
2019-04-14T00:47:51.759Z,85.90
2019-04-14T00:50:10.312Z,85.80
2019-04-14T00:52:39.434Z,86.00
2019-04-14T00:55:08.100Z,86.40
2019-04-14T00:57:37.589Z,86.30
2019-04-14T01:00:08.204Z,86.60
2019-04-14T01:02:37.033Z,86.80
2019-04-14T01:05:08.801Z,86.70
2019-04-14T01:07:37.416Z,86.70
2019-04-14T01:10:06.188Z,86.60
2019-04-14T01:12:34.646Z,86.60
2019-04-14T01:15:03.168Z,86.40
2019-04-14T01:17:32.980Z,86.40
2019-04-14T01:20:01.698Z,87.20
2019-04-14T01:22:31.380Z,88.40
2019-04-14T01:25:19.407Z,88.80
2019-04-14T01:27:47.926Z,89.20
2019-04-14T01:30:17.573Z,90.20
2019-04-14T01:32:46.215Z,90.40
2019-04-14T01:35:15.862Z,91.00
2019-04-14T01:37:44.381Z,91.20
2019-04-14T01:40:32.156Z,91.30
2019-04-14T01:43:01.606Z,91.50
2019-04-14T01:45:30.198Z,91.70
2019-04-14T01:47:59.558Z,91.50
2019-04-14T01:50:45.992Z,92.10
2019-04-14T01:53:19.224Z,92.80
2019-04-14T01:55:50.442Z,93.00
2019-04-14T01:58:20.838Z,93.10
2019-04-14T02:00:51.300Z,93.00
2019-04-14T02:03:19.797Z,93.00
2019-04-14T02:05:48.226Z,93.00
2019-04-14T02:08:17.713Z,93.20
2019-04-14T02:10:47.703Z,93.50
2019-04-14T02:13:16.367Z,93.40
2019-04-14T02:15:44.781Z,93.60
2019-04-14T02:18:14.289Z,93.80
2019-04-14T02:20:42.833Z,93.90
2019-04-14T02:23:12.446Z,94.10
2019-04-14T02:25:41.074Z,94.20
2019-04-14T02:28:09.592Z,94.40
2019-04-14T02:30:48.371Z,94.20
2019-04-14T02:33:38.980Z,94.00
2019-04-14T02:36:19.972Z,94.00
2019-04-14T02:38:43.195Z,94.10
2019-04-14T02:41:13.405Z,94.00
2019-04-14T02:43:37.597Z,94.10
2019-04-14T02:46:02.335Z,94.00
2019-04-14T02:48:47.985Z,94.10
2019-04-14T02:56:15.974Z,94.10
2019-04-14T02:58:44.471Z,94.20
2019-04-14T03:01:10.122Z,94.20
2019-04-14T03:06:07.102Z,94.80
2019-04-14T03:08:45.255Z,94.90
2019-04-14T03:13:46.675Z,94.80
2019-04-14T03:16:15.571Z,94.90
2019-04-14T03:18:55.837Z,94.90
2019-04-14T03:21:34.387Z,95.00
2019-04-14T03:27:04.579Z,94.90
2019-04-14T03:30:30.308Z,95.00
2019-04-14T03:35:47.939Z,95.30
2019-04-14T03:37:44.638Z,95.10
2019-04-14T03:40:10.013Z,95.50
2019-04-14T03:42:45.875Z,95.50
2019-04-14T03:45:04.546Z,95.50
2019-04-14T03:47:31.046Z,95.50
2019-04-14T03:50:11.648Z,95.50
2019-04-14T03:52:37.852Z,95.60
2019-04-14T03:54:57.019Z,96.60
2019-04-14T03:57:12.497Z,96.60
2019-04-14T03:59:41.307Z,96.30
2019-04-14T04:02:09.787Z,96.40
2019-04-14T04:04:57.753Z,96.40
2019-04-14T04:07:26.211Z,96.50
2019-04-14T04:10:00.412Z,96.90
2019-04-14T04:12:29.276Z,97.50
2019-04-14T04:14:57.799Z,97.30
2019-04-14T04:17:34.169Z,97.00
2019-04-14T04:20:37.006Z,96.90
2019-04-14T04:23:07.499Z,97.00
2019-04-14T04:25:44.416Z,97.40
2019-04-14T04:28:32.824Z,97.40
2019-04-14T04:31:15.616Z,97.20
2019-04-14T04:33:45.821Z,97.50
2019-04-14T04:36:16.051Z,97.60
2019-04-14T04:38:46.379Z,97.80
2019-04-14T04:41:14.798Z,97.80
2019-04-14T04:43:43.235Z,97.90
2019-04-14T04:46:11.666Z,98.00
2019-04-14T04:48:40.091Z,98.00
2019-04-14T04:51:09.799Z,98.00
2019-04-14T04:53:38.225Z,98.00
2019-04-14T04:56:08.012Z,97.90
2019-04-14T04:58:37.186Z,97.70
2019-04-14T05:01:05.770Z,97.40
2019-04-14T05:03:34.230Z,97.40
2019-04-14T05:06:11.258Z,97.20
2019-04-14T05:08:41.482Z,97.30
2019-04-14T05:11:27.345Z,97.20
2019-04-14T05:13:57.660Z,97.20
2019-04-14T05:16:26.140Z,97.90
2019-04-14T05:18:55.216Z,97.60
2019-04-14T05:21:23.778Z,97.60
2019-04-14T05:23:52.228Z,97.40
2019-04-14T05:26:22.003Z,97.40
2019-04-14T05:28:50.711Z,97.50
2019-04-14T05:31:19.223Z,97.60
2019-04-14T05:33:48.947Z,97.60
2019-04-14T05:36:17.554Z,97.50
2019-04-14T05:38:45.992Z,97.80
2019-04-14T05:41:15.727Z,98.40
2019-04-14T05:43:50.182Z,98.80
2019-04-14T05:46:14.548Z,98.90
2019-04-14T05:48:42.976Z,98.70
2019-04-14T05:51:11.429Z,98.50
2019-04-14T05:53:39.843Z,98.50
2019-04-14T05:56:08.300Z,98.20
2019-04-14T05:58:36.711Z,98.20
2019-04-14T06:01:05.236Z,98.10
2019-04-14T06:03:34.234Z,98.10
2019-04-14T06:06:02.971Z,98.00
2019-04-14T06:08:31.391Z,98.00
2019-04-14T06:10:59.855Z,98.30
2019-04-14T06:13:47.876Z,98.20
2019-04-14T06:16:16.313Z,98.30
2019-04-14T06:18:46.445Z,98.80
2019-04-14T06:21:14.876Z,99.10
2019-04-14T06:23:43.302Z,99.70
2019-04-14T06:26:11.730Z,99.50
2019-04-14T06:28:40.159Z,98.70
2019-04-14T06:31:12.944Z,98.50
2019-04-14T06:33:54.954Z,98.60
2019-04-14T06:36:41.226Z,98.60
2019-04-14T06:39:30.640Z,98.50
2019-04-14T06:41:59.057Z,98.70
2019-04-14T06:44:27.490Z,98.70
2019-04-14T06:46:55.945Z,98.80
2019-04-14T06:49:24.380Z,99.30
2019-04-14T06:51:52.806Z,99.50
2019-04-14T06:54:21.232Z,98.80
2019-04-14T06:56:49.741Z,98.70
2019-04-14T06:59:18.169Z,98.60
2019-04-14T07:01:46.599Z,98.50
2019-04-14T07:04:15.019Z,98.80
2019-04-14T07:06:43.456Z,98.80
2019-04-14T07:09:11.901Z,98.70
2019-04-14T07:11:40.320Z,98.60
2019-04-14T07:14:08.754Z,98.50
2019-04-14T07:16:37.217Z,99.20
2019-04-14T07:19:05.633Z,98.60
2019-04-14T07:21:34.145Z,98.40
2019-04-14T07:24:02.578Z,98.50
2019-04-14T07:26:31.018Z,98.30
2019-04-14T07:28:59.440Z,98.50
2019-04-14T07:31:29.534Z,98.70
2019-04-14T07:33:59.605Z,99.20
2019-04-14T07:36:38.517Z,99.00
2019-04-14T07:39:08.820Z,98.90
2019-04-14T07:41:38.899Z,99.00
2019-04-14T07:44:15.038Z,99.10
2019-04-14T07:46:59.975Z,98.90
2019-04-14T07:49:36.015Z,98.80
2019-04-14T07:52:06.120Z,98.90
2019-04-14T07:54:54.706Z,98.90
2019-04-14T07:57:41.277Z,98.80
2019-04-14T08:00:17.473Z,99.10
2019-04-14T08:02:59.590Z,99.10
2019-04-14T08:05:29.658Z,99.20
2019-04-14T08:07:58.272Z,99.10
2019-04-14T08:10:26.782Z,99.20
2019-04-14T08:12:55.305Z,98.90
2019-04-14T08:15:23.817Z,98.90
2019-04-14T08:17:52.249Z,98.90
2019-04-14T08:20:27.339Z,98.90
2019-04-14T08:22:50.851Z,98.80
2019-04-14T08:25:19.360Z,98.80
2019-04-14T08:27:47.811Z,98.60
2019-04-14T08:30:16.584Z,98.50
2019-04-14T08:32:45.276Z,98.40
2019-04-14T08:35:13.954Z,98.50
2019-04-14T08:37:42.398Z,98.40
2019-04-14T08:40:12.362Z,98.50
2019-04-14T08:42:48.125Z,98.40
2019-04-14T08:45:21.224Z,98.30
2019-04-14T08:47:57.389Z,98.30
2019-04-14T08:50:39.369Z,98.10
2019-04-14T08:53:02.399Z,98.20
2019-04-14T08:55:48.661Z,98.30
2019-04-14T08:58:21.731Z,98.30
2019-04-14T09:00:54.960Z,98.40
2019-04-14T09:03:25.028Z,98.70
2019-04-14T09:05:55.107Z,98.80
2019-04-14T09:08:43.583Z,98.70
2019-04-14T09:11:13.678Z,98.80
2019-04-14T09:13:42.164Z,99.10
2019-04-14T09:16:10.615Z,99.00
2019-04-14T09:18:39.044Z,99.00
2019-04-14T09:21:07.485Z,99.00
2019-04-14T09:23:35.921Z,98.90
2019-04-14T09:26:04.349Z,99.00
2019-04-14T09:28:32.792Z,99.90
2019-04-14T09:31:01.227Z,99.60
2019-04-14T09:33:29.647Z,99.50
2019-04-14T09:35:58.152Z,99.40
2019-04-14T09:38:26.604Z,99.30
2019-04-14T09:40:55.049Z,99.10
2019-04-14T09:43:23.480Z,98.90
2019-04-14T09:45:51.898Z,98.70
2019-04-14T09:48:20.364Z,98.50
2019-04-14T09:51:03.756Z,98.60
2019-04-14T09:53:18.950Z,98.70
2019-04-14T09:55:47.395Z,98.50
2019-04-14T09:58:15.831Z,98.70
2019-04-14T10:00:44.454Z,98.70
2019-04-14T10:03:12.973Z,98.70
2019-04-14T10:05:41.410Z,98.80
2019-04-14T10:08:09.854Z,98.70
2019-04-14T10:10:38.365Z,98.50
2019-04-14T10:13:06.882Z,98.50
2019-04-14T10:15:35.310Z,98.50
2019-04-14T10:18:03.754Z,98.70
2019-04-14T10:20:32.172Z,98.60
2019-04-14T10:23:00.619Z,98.80
2019-04-14T10:25:29.036Z,98.80
2019-04-14T10:27:57.469Z,98.80
2019-04-14T10:30:25.893Z,98.80
2019-04-14T10:32:54.332Z,98.90
2019-04-14T10:35:22.759Z,99.00
2019-04-14T10:37:51.190Z,99.10
2019-04-14T10:40:19.616Z,99.00
2019-04-14T10:42:48.316Z,99.30
2019-04-14T10:45:18.343Z,99.10
2019-04-14T10:47:47.144Z,99.20
2019-04-14T10:50:15.639Z,99.10
2019-04-14T10:52:44.080Z,99.40
2019-04-14T10:55:12.596Z,99.40
2019-04-14T10:57:41.041Z,99.90
2019-04-14T11:00:11.560Z,99.90
2019-04-14T11:02:39.995Z,99.90
2019-04-14T11:05:08.512Z,99.90
2019-04-14T11:07:36.930Z,99.90
2019-04-14T11:10:09.422Z,99.90
2019-04-14T11:12:37.852Z,99.90
2019-04-14T11:15:08.291Z,99.90
2019-04-14T11:17:36.716Z,99.90
2019-04-14T11:20:06.869Z,99.90
2019-04-14T11:22:35.291Z,99.90
2019-04-14T11:25:06.173Z,99.90
2019-04-14T11:27:34.662Z,99.90
2019-04-14T11:30:03.848Z,99.90
2019-04-14T11:32:36.807Z,99.90
2019-04-14T11:35:16.827Z,99.90
2019-04-14T11:38:01.934Z,99.90
2019-04-14T11:40:49.986Z,99.90
2019-04-14T11:43:18.436Z,99.90
2019-04-14T11:45:46.872Z,99.90
2019-04-14T11:48:15.381Z,99.90
2019-04-14T11:50:43.811Z,99.90
2019-04-14T11:53:12.244Z,99.90
2019-04-14T11:55:40.697Z,99.90
2019-04-14T11:58:09.129Z,99.90
2019-04-14T12:00:39.202Z,99.90
2019-04-14T12:03:15.451Z,99.90
2019-04-14T12:06:02.300Z,99.90
2019-04-14T12:08:35.263Z,99.90
2019-04-14T12:11:03.691Z,99.90
2019-04-14T12:13:32.121Z,99.90
2019-04-14T12:16:00.555Z,99.90
2019-04-14T12:18:28.988Z,99.90
2019-04-14T12:20:57.427Z,99.90
2019-04-14T12:23:26.811Z,99.90
2019-04-14T12:26:04.718Z,99.90
2019-04-14T12:28:26.280Z,99.90
2019-04-14T12:30:55.473Z,99.90
2019-04-14T12:33:24.204Z,99.90
2019-04-14T12:35:52.651Z,99.90
2019-04-14T12:38:21.158Z,99.90
2019-04-14T12:40:50.129Z,99.90
2019-04-14T12:43:22.888Z,99.90
2019-04-14T12:45:55.927Z,99.80
2019-04-14T12:48:44.452Z,99.70
2019-04-14T12:51:23.677Z,99.20
2019-04-14T12:53:52.109Z,98.80
2019-04-14T12:56:22.198Z,98.70
2019-04-14T12:58:55.169Z,98.20
2019-04-14T13:01:50.214Z,97.90
2019-04-14T13:04:38.432Z,98.60
2019-04-14T13:07:12.734Z,98.10
2019-04-14T13:09:41.179Z,98.10
2019-04-14T13:12:10.447Z,97.70
2019-04-14T13:14:39.128Z,97.50
2019-04-14T13:17:07.635Z,97.50
2019-04-14T13:19:36.062Z,97.80
2019-04-14T13:22:04.871Z,97.50
2019-04-14T13:24:33.303Z,98.20
2019-04-14T13:27:01.732Z,98.00
2019-04-14T13:29:30.170Z,97.70
2019-04-14T13:31:58.614Z,97.20
2019-04-14T13:34:27.063Z,96.50
2019-04-14T13:36:55.542Z,94.70
2019-04-14T13:39:24.019Z,93.10
2019-04-14T13:41:52.534Z,92.90
2019-04-14T13:44:20.973Z,93.50
2019-04-14T13:46:49.420Z,93.00
2019-04-14T13:49:17.869Z,93.60
2019-04-14T13:51:46.323Z,92.20
2019-04-14T13:54:14.825Z,86.90
2019-04-14T13:56:43.246Z,84.10
2019-04-14T13:59:11.700Z,82.20
2019-04-14T14:01:40.129Z,80.60
2019-04-14T14:04:08.586Z,78.30
2019-04-14T14:06:37.051Z,76.10
2019-04-14T14:09:08.111Z,74.30
2019-04-14T14:11:41.106Z,73.20
2019-04-14T14:14:11.180Z,75.00
2019-04-14T14:16:57.761Z,74.50
2019-04-14T14:19:30.751Z,75.30
2019-04-14T14:22:03.753Z,75.60
2019-04-14T14:24:39.607Z,73.80
2019-04-14T14:27:09.805Z,72.90
2019-04-14T14:29:38.241Z,71.50
2019-04-14T14:32:08.312Z,66.00
2019-04-14T14:34:36.756Z,62.40
2019-04-14T14:37:05.207Z,62.50
2019-04-14T14:39:33.913Z,59.10
2019-04-14T14:42:02.370Z,57.00
2019-04-14T14:44:48.914Z,59.70
2019-04-14T14:47:36.823Z,62.00
2019-04-14T14:50:08.533Z,65.40
2019-04-14T14:52:38.348Z,68.60
2019-04-14T14:55:07.620Z,71.00
2019-04-14T14:57:36.066Z,73.20
2019-04-14T15:00:08.560Z,75.90
2019-04-14T15:02:37.017Z,78.70
2019-04-14T15:05:07.000Z,80.70
2019-04-14T15:07:35.459Z,83.50
2019-04-14T15:10:05.732Z,83.80
2019-04-14T15:12:34.172Z,84.40
2019-04-14T15:15:02.719Z,85.70
2019-04-14T15:17:31.173Z,87.30
2019-04-14T15:20:00.642Z,88.90
2019-04-14T15:22:29.084Z,90.80
2019-04-14T15:24:57.592Z,91.10
2019-04-14T15:27:26.046Z,91.20
2019-04-14T15:29:54.569Z,91.20
2019-04-14T15:32:23.008Z,90.90
2019-04-14T15:34:51.461Z,91.20
2019-04-14T15:37:19.891Z,91.40
2019-04-14T15:39:48.328Z,91.50
2019-04-14T15:42:16.759Z,91.60
2019-04-14T15:44:45.208Z,91.90
2019-04-14T15:47:13.652Z,91.90
2019-04-14T15:49:42.095Z,91.70
2019-04-14T15:52:10.589Z,91.70
2019-04-14T15:54:39.051Z,91.80
2019-04-14T15:57:15.068Z,91.80
2019-04-14T15:59:45.159Z,91.40
2019-04-14T16:02:15.236Z,91.60
2019-04-14T16:04:51.238Z,91.50
2019-04-14T16:07:33.204Z,91.30
2019-04-14T16:10:03.726Z,91.10
2019-04-14T16:12:43.000Z,90.70
2019-04-14T16:15:25.409Z,90.30
2019-04-14T16:18:04.252Z,90.30
2019-04-14T16:20:41.295Z,90.00
2019-04-14T16:23:09.831Z,90.00
2019-04-14T16:25:42.679Z,90.00
2019-04-14T16:28:18.978Z,90.30
2019-04-14T16:30:49.362Z,90.50
2019-04-14T16:33:24.412Z,91.20
2019-04-14T16:35:53.776Z,91.80
2019-04-14T16:38:22.262Z,92.30
2019-04-14T16:40:50.727Z,92.50
2019-04-14T16:43:19.217Z,92.60
2019-04-14T16:45:47.688Z,92.60
2019-04-14T16:48:16.126Z,92.70
2019-04-14T16:50:44.834Z,92.70
2019-04-14T16:53:14.909Z,92.70
2019-04-14T16:55:50.814Z,92.80
2019-04-14T16:58:23.791Z,92.90
2019-04-14T17:01:02.909Z,92.70
2019-04-14T17:03:31.343Z,92.60
2019-04-14T17:05:59.795Z,92.70
2019-04-14T17:08:28.251Z,92.90
2019-04-14T17:10:56.697Z,92.90
2019-04-14T17:13:26.767Z,92.90
2019-04-14T17:16:02.593Z,93.10
2019-04-14T17:18:48.719Z,93.10
2019-04-14T17:21:18.800Z,93.50
2019-04-14T17:23:48.877Z,94.20
2019-04-14T17:26:25.927Z,94.30
2019-04-14T17:28:56.039Z,94.70
2019-04-14T17:31:42.262Z,95.30
2019-04-14T17:34:15.228Z,95.00
2019-04-14T17:36:51.051Z,94.80
2019-04-14T17:39:31.784Z,94.50
2019-04-14T17:42:04.639Z,94.60
2019-04-14T17:44:34.716Z,94.70
2019-04-14T17:47:10.362Z,94.60
2019-04-14T17:49:56.543Z,94.80
2019-04-14T17:52:32.605Z,94.80
2019-04-14T17:55:08.429Z,94.90
2019-04-14T17:57:41.260Z,95.00
2019-04-14T18:00:20.742Z,95.10
2019-04-14T18:03:07.018Z,95.30
2019-04-14T18:05:40.207Z,95.80
2019-04-14T18:08:12.977Z,95.20
2019-04-14T18:10:51.998Z,95.50
2019-04-14T18:13:22.096Z,95.40
2019-04-14T18:15:52.167Z,95.40
2019-04-14T18:18:31.310Z,95.50
2019-04-14T18:21:01.462Z,95.70
2019-04-14T18:23:32.046Z,95.70
2019-04-14T18:26:00.181Z,96.00
2019-04-14T18:28:47.385Z,96.00
2019-04-14T18:31:17.476Z,96.00
2019-04-14T18:33:54.455Z,96.00
2019-04-14T18:36:32.848Z,95.90
2019-04-14T18:39:04.500Z,95.80
2019-04-14T18:41:34.705Z,95.90
2019-04-14T18:44:10.393Z,95.50
2019-04-14T18:46:43.266Z,94.40
2019-04-14T18:49:28.368Z,93.50
2019-04-14T18:52:13.607Z,93.50
2019-04-14T18:54:58.668Z,95.20
2019-04-14T18:57:28.826Z,96.10
2019-04-14T18:59:58.912Z,96.40
2019-04-14T19:02:27.409Z,96.40
2019-04-14T19:04:55.915Z,96.50
2019-04-14T19:07:24.360Z,96.70
2019-04-14T19:09:52.845Z,96.80
2019-04-14T19:12:25.763Z,96.90
2019-04-14T19:14:55.923Z,97.00
2019-04-14T19:17:35.306Z,97.00
2019-04-14T19:20:05.265Z,97.00
2019-04-14T19:22:33.792Z,97.00
2019-04-14T19:25:08.339Z,97.00
2019-04-14T19:27:32.453Z,97.10
2019-04-14T19:30:00.905Z,96.90
2019-04-14T19:32:29.434Z,97.00
2019-04-14T19:34:57.875Z,96.70
2019-04-14T19:37:26.335Z,96.90
2019-04-14T19:39:54.781Z,96.90
2019-04-14T19:42:23.266Z,96.90
2019-04-14T19:45:11.223Z,96.90
2019-04-14T19:47:39.685Z,96.90
2019-04-14T19:50:08.210Z,96.80
2019-04-14T19:52:36.708Z,96.80
2019-04-14T19:55:05.630Z,96.80
2019-04-14T19:57:34.266Z,96.80
2019-04-14T20:00:02.836Z,96.90
2019-04-14T20:02:31.317Z,96.80
2019-04-14T20:04:59.749Z,96.50
2019-04-14T20:07:28.212Z,96.50
2019-04-14T20:09:56.647Z,96.70
2019-04-14T20:12:25.100Z,96.80
2019-04-14T20:14:53.652Z,96.80
2019-04-14T20:17:26.743Z,97.00
2019-04-14T20:19:56.894Z,96.90
2019-04-14T20:22:32.973Z,97.00
2019-04-14T20:25:11.724Z,97.00
2019-04-14T20:27:56.944Z,96.90
2019-04-14T20:30:36.269Z,96.80
2019-04-14T20:33:04.896Z,96.60
2019-04-14T20:35:34.648Z,96.50
2019-04-14T20:38:03.195Z,96.60
2019-04-14T20:40:31.790Z,97.30
2019-04-14T20:43:00.312Z,97.20
2019-04-14T20:45:31.210Z,97.40
2019-04-14T20:48:01.411Z,97.50
2019-04-14T20:50:29.901Z,97.70
2019-04-14T20:52:58.377Z,97.60
2019-04-14T20:55:26.823Z,97.60
2019-04-14T20:57:55.291Z,97.50
2019-04-14T21:00:24.361Z,97.50
2019-04-14T21:02:59.842Z,97.40
2019-04-14T21:05:48.034Z,97.50
2019-04-14T21:08:23.695Z,97.80
2019-04-14T21:10:56.677Z,97.90
2019-04-14T21:13:32.542Z,98.00
2019-04-14T21:16:12.604Z,98.10
2019-04-14T21:18:37.452Z,98.50
2019-04-14T21:21:07.585Z,98.70
2019-04-14T21:23:49.717Z,98.90
2019-04-14T21:26:22.605Z,99.00
2019-04-14T21:28:58.407Z,99.20
2019-04-14T21:31:40.634Z,99.20
2019-04-14T21:34:10.748Z,99.20
2019-04-14T21:36:41.121Z,99.40
2019-04-14T21:39:17.302Z,99.50
2019-04-14T21:41:47.412Z,99.50
2019-04-14T21:44:15.857Z,99.60
2019-04-14T21:46:44.333Z,99.40
2019-04-14T21:49:32.164Z,99.30
2019-04-14T21:52:02.300Z,99.20
2019-04-14T21:54:30.826Z,99.10
2019-04-14T22:02:46.542Z,99.20
2019-04-14T22:05:31.642Z,99.60
2019-04-14T22:08:07.678Z,99.80
2019-04-14T22:10:37.931Z,99.90
2019-04-14T22:13:06.419Z,99.90
2019-04-14T22:15:36.939Z,99.90
2019-04-14T22:18:05.030Z,99.90
2019-04-14T22:20:33.539Z,99.90
2019-04-14T22:23:03.766Z,99.90
2019-04-14T22:25:32.204Z,99.90
2019-04-14T22:28:00.628Z,99.90
2019-04-14T22:30:29.072Z,99.90
2019-04-14T22:32:57.603Z,99.90
2019-04-14T22:35:26.018Z,99.90
2019-04-14T22:37:54.462Z,99.90
2019-04-14T22:40:22.948Z,99.90
2019-04-14T22:42:51.384Z,99.90
2019-04-14T22:45:19.812Z,99.90
2019-04-14T22:47:48.249Z,99.90
2019-04-14T22:50:36.049Z,99.90
2019-04-14T22:53:04.615Z,99.90
2019-04-14T22:55:33.191Z,99.90
2019-04-14T22:58:01.625Z,99.90
2019-04-14T23:00:46.799Z,99.90
2019-04-14T23:03:35.229Z,99.90
2019-04-14T23:06:05.741Z,99.90
2019-04-14T23:08:35.804Z,99.90
2019-04-14T23:11:22.323Z,99.90
2019-04-14T23:13:52.400Z,99.90
2019-04-14T23:16:38.933Z,99.90
2019-04-14T23:19:17.700Z,99.90
2019-04-14T23:21:50.436Z,99.90
2019-04-14T23:24:23.613Z,99.90
2019-04-14T23:26:53.225Z,99.90
2019-04-14T23:29:21.867Z,99.90
2019-04-14T23:31:50.307Z,99.90
2019-04-14T23:34:18.730Z,99.90
2019-04-14T23:36:47.176Z,99.90
2019-04-14T23:39:15.616Z,99.90
2019-04-14T23:41:44.042Z,99.90
2019-04-14T23:44:31.813Z,99.90
2019-04-14T23:47:00.256Z,99.90
2019-04-14T23:49:28.687Z,99.90
2019-04-14T23:51:57.160Z,99.90
2019-04-14T23:54:25.587Z,99.90
2019-04-14T23:57:04.906Z,99.90
2019-04-14T23:59:43.533Z,99.90
